KMAO

Marion County Airport

Marion, South Carolina, USA
METAR KMAO 150315Z AUTO 19003KT 7SM CLR 23/22 A3004 RMK AO2
Observed Flight Rules
Aug-15 @ 03:15 UTC (20 minutes ago) Visual Flight Rules
Wind Visibility Clouds
190° at 3 knots 7 miles
  • Clear skies
Temperatures Readings
Current 23°C / 73°F
Dewpoint 22°C / 72°F
Humidity 94%
Altimeter 30.04" Hg
Pressure 1017 hPa
Elevation 28
METAR KMAO 150315Z AUTO 19003KT 7SM CLR 23/22 A3004 RMK AO2
Observed Flight Rules
Aug-15 @ 03:15 UTC
(20 minutes ago)
VFR
Wind Visibility
190° at 3 knots 7 miles
Clouds
  • Clear skies
Temperature Dewpoint
23°C / 73°F 22°C / 72°F
Humidity Altimeter Pressure
94% 30.04" Hg 1017 hPa